Time;durP1;ratioP1;P1;durP2;ratioP2;P2;SDS_P1;SDS_P2;PMS_P1;PMS_P2;Temp;Humidity;BMP_temperature;BMP_pressure;BME280_temperature;BME280_humidity;BME280_pressure;Samples;Min_cycle;Max_cycle;Signal;HPM_P1;HPM_P2
2023/06/27 00:00:27;;;;;;;;;;;;;;;;;;2203325;59;1949;-18
2023/06/27 00:02:58;;;;;;;;;;;;;;;;;;2203403;67;1924;-18
2023/06/27 00:05:30;;;;;;;;;;;;;;;;;;2203337;59;1331;-18
2023/06/27 00:08:01;;;;;;;;;;;;;;;;;;2203633;67;1644;-18
2023/06/27 00:10:34;;;;;;;;;;;;;;;;;;2203010;59;1135;-18
2023/06/27 00:13:04;;;;;;;;;;;;;;;;;;2203334;67;1786;-21
2023/06/27 00:15:34;;;;;;;;;;;;;;;;;;2203527;67;2028;-20
2023/06/27 00:18:07;;;;;;;;;;;;;;;;;;2197284;67;1126;-21
2023/06/27 00:20:37;;;;;;;;;;;;;;;;;;2204393;59;1740;-20
2023/06/27 00:23:16;;;;;;;;;;;;;;;;;;2203890;59;1991;-20
2023/06/27 00:25:49;;;;;;;;;;;;;;;;;;2203506;67;1327;-21
2023/06/27 00:28:19;;;;;;;;;;;;;;;;;;2203462;59;1938;-20
2023/06/27 00:30:56;;;;;;;;;;;;;;;;;;2197662;59;1909;-20
2023/06/27 00:33:26;;;;;;;;;;;;;;;;;;2202328;67;1258;-20
2023/06/27 00:35:56;;;;;;;;;;;;;;;;;;2202372;67;1291;-21
2023/06/27 00:38:26;;;;;;;;;;;;;;;;;;2204104;67;1799;-21
2023/06/27 00:40:56;;;;;;;;;;;;;;;;;;2203757;67;1233;-20
2023/06/27 00:43:27;;;;;;;;;;;;;;;;;;2200103;67;1913;-21
2023/06/27 00:45:58;;;;;;;;;;;;;;;;;;2200384;67;1461;-21
2023/06/27 00:48:29;;;;;;;;;;;;;;;;;;2202991;67;1404;-21
2023/06/27 00:50:59;;;;;;;;;;;;;;;;;;2203507;67;2034;-20
2023/06/27 00:53:30;;;;;;;;;;;;;;;;;;2203380;67;1172;-20
2023/06/27 00:56:00;;;;;;;;;;;;;;;;;;2203499;59;1331;-21
2023/06/27 00:58:31;;;;;;;;;;;;;;;;;;2203345;59;1828;-19
2023/06/27 01:01:03;;;;;;;;;;;;;;;;;;2196374;59;1808;-18
2023/06/27 01:03:33;;;;;;;;;;;;;;;;;;2203146;59;1940;-18
2023/06/27 01:06:11;;;;;;;;;;;;;;;;;;2203369;59;1595;-18
2023/06/27 01:08:43;;;;;;;;;;;;;;;;;;2203753;67;1239;-18
2023/06/27 01:11:20;;;;;;;;;;;;;;;;;;2199898;67;1288;-18
2023/06/27 01:13:54;;;;;;;;;;;;;;;;;;2203198;67;1363;-18
2023/06/27 01:16:28;;;;;;;;;;;;;;;;;;2199414;67;1229;-19
2023/06/27 01:18:59;;;;;;;;;;;;;;;;;;2203137;59;1627;-18
2023/06/27 01:21:30;;;;;;;;;;;;;;;;;;2198330;59;1198;-18
2023/06/27 01:24:03;;;;;;;;;;;;;;;;;;2203367;67;1947;-18
2023/06/27 01:26:34;;;;;;;;;;;;;;;;;;2203546;59;1280;-18
2023/06/27 01:29:04;;;;;;;;;;;;;;;;;;2203748;59;2000;-18
2023/06/27 01:31:46;;;;;;;;;;;;;;;;;;2203804;59;1351;-18
2023/06/27 01:34:19;;;;;;;;;;;;;;;;;;2203662;59;2335;-18
2023/06/27 01:37:08;;;;;;;;;;;;;;;;;;2202656;59;1551;-18
2023/06/27 01:39:41;;;;;;;;;;;;;;;;;;2201015;67;1599;-18
2023/06/27 01:42:15;;;;;;;;;;;;;;;;;;2204088;59;1338;-18
2023/06/27 01:44:47;;;;;;;;;;;;;;;;;;2200518;67;1949;-18
2023/06/27 01:47:18;;;;;;;;;;;;;;;;;;2203446;67;1395;-18
2023/06/27 01:49:48;;;;;;;;;;;;;;;;;;2204288;59;1549;-18
2023/06/27 01:52:19;;;;;;;;;;;;;;;;;;2203784;59;1242;-18
2023/06/27 01:54:49;;;;;;;;;;;;;;;;;;2203936;59;1154;-18
2023/06/27 01:57:19;;;;;;;;;;;;;;;;;;2203103;67;1399;-18
2023/06/27 01:59:49;;;;;;;;;;;;;;;;;;2203365;59;1922;-21
2023/06/27 02:02:20;;;;;;;;;;;;;;;;;;2199796;67;1441;-20
2023/06/27 02:04:50;;;;;;;;;;;;;;;;;;2202622;59;1940;-20
2023/06/27 02:07:20;;;;;;;;;;;;;;;;;;2202208;59;2327;-20
2023/06/27 02:09:50;;;;;;;;;;;;;;;;;;2204008;67;1685;-20
2023/06/27 02:12:21;;;;;;;;;;;;;;;;;;2203789;67;1689;-18
2023/06/27 02:14:51;;;;;;;;;;;;;;;;;;2204475;67;1548;-18
2023/06/27 02:17:21;;;;;;;;;;;;;;;;;;2202994;67;1362;-18
2023/06/27 02:19:52;;;;;;;;;;;;;;;;;;2203812;59;1604;-18
2023/06/27 02:22:22;;;;;;;;;;;;;;;;;;2203984;67;1303;-19
2023/06/27 02:24:52;;;;;;;;;;;;;;;;;;2204068;67;1941;-20
2023/06/27 02:27:23;;;;;;;;;;;;;;;;;;2204027;67;1283;-20
2023/06/27 02:29:53;;;;;;;;;;;;;;;;;;2204957;67;1268;-20
2023/06/27 02:32:23;;;;;;;;;;;;;;;;;;2196946;59;1933;-20
2023/06/27 02:34:54;;;;;;;;;;;;;;;;;;2204040;59;1313;-18
2023/06/27 02:37:24;;;;;;;;;;;;;;;;;;2199994;67;1590;-18
2023/06/27 02:39:56;;;;;;;;;;;;;;;;;;2204114;67;1613;-18
2023/06/27 02:42:26;;;;;;;;;;;;;;;;;;2204240;59;1525;-18
2023/06/27 02:44:57;;;;;;;;;;;;;;;;;;2203479;67;1948;-20
2023/06/27 02:47:28;;;;;;;;;;;;;;;;;;2203657;67;1699;-18
2023/06/27 02:49:58;;;;;;;;;;;;;;;;;;2203523;59;1328;-18
2023/06/27 02:52:28;;;;;;;;;;;;;;;;;;2203565;59;1983;-19
2023/06/27 02:54:59;;;;;;;;;;;;;;;;;;2207026;53;1739;-72
2023/06/27 02:57:30;;;;;;;;;;;;;;;;;;2206810;59;2489;-73
2023/06/27 03:00:00;;;;;;;;;;;;;;;;;;2206522;59;1880;-72
2023/06/27 03:02:31;;;;;;;;;;;;;;;;;;2206179;59;1451;-72
2023/06/27 03:05:01;;;;;;;;;;;;;;;;;;2206513;59;2020;-72
2023/06/27 03:07:37;;;;;;;;;;;;;;;;;;2206535;67;1413;-72
2023/06/27 03:10:08;;;;;;;;;;;;;;;;;;2206796;67;1458;-73
2023/06/27 03:12:38;;;;;;;;;;;;;;;;;;2203158;59;1425;-72
2023/06/27 03:15:09;;;;;;;;;;;;;;;;;;2202739;59;2806;-71
2023/06/27 03:17:39;;;;;;;;;;;;;;;;;;2203429;67;1552;-71
2023/06/27 03:20:10;;;;;;;;;;;;;;;;;;2206677;59;1619;-71
2023/06/27 03:22:40;;;;;;;;;;;;;;;;;;2207409;59;1526;-72
2023/06/27 03:25:11;;;;;;;;;;;;;;;;;;2203835;67;2426;-72
2023/06/27 03:27:41;;;;;;;;;;;;;;;;;;2206995;59;1636;-72
2023/06/27 03:30:12;;;;;;;;;;;;;;;;;;2207911;59;1492;-72
2023/06/27 03:32:42;;;;;;;;;;;;;;;;;;2207183;59;1695;-76
2023/06/27 03:35:13;;;;;;;;;;;;;;;;;;2206864;67;2129;-72
2023/06/27 03:37:43;;;;;;;;;;;;;;;;;;2206488;59;1319;-72
2023/06/27 03:40:14;;;;;;;;;;;;;;;;;;2209787;59;2059;-72
2023/06/27 03:42:44;;;;;;;;;;;;;;;;;;2205816;67;1343;-72
2023/06/27 03:45:14;;;;;;;;;;;;;;;;;;2202601;67;1939;-73
2023/06/27 03:47:45;;;;;;;;;;;;;;;;;;2207040;59;1301;-72
2023/06/27 03:50:15;;;;;;;;;;;;;;;;;;2206312;67;1607;-72
2023/06/27 03:52:45;;;;;;;;;;;;;;;;;;2206657;59;1410;-72
2023/06/27 03:55:15;;;;;;;;;;;;;;;;;;2206164;59;1504;-72
2023/06/27 03:57:46;;;;;;;;;;;;;;;;;;2207309;59;1676;-72
2023/06/27 04:00:16;;;;;;;;;;;;;;;;;;2206494;59;1901;-72
2023/06/27 04:02:47;;;;;;;;;;;;;;;;;;2206691;67;1450;-72
2023/06/27 04:05:17;;;;;;;;;;;;;;;;;;2206839;59;1937;-73
2023/06/27 04:07:47;;;;;;;;;;;;;;;;;;2206501;67;1776;-72
2023/06/27 04:10:18;;;;;;;;;;;;;;;;;;2203003;67;1505;-72
2023/06/27 04:12:48;;;;;;;;;;;;;;;;;;2207184;59;1380;-72
2023/06/27 04:15:19;;;;;;;;;;;;;;;;;;2205695;67;1741;-72
2023/06/27 04:17:52;;;;;;;;;;;;;;;;;;2207003;67;1281;-71
2023/06/27 04:20:22;;;;;;;;;;;;;;;;;;2209096;59;1794;-74
2023/06/27 04:22:53;;;;;;;;;;;;;;;;;;2202719;59;1439;-72
2023/06/27 04:25:23;;;;;;;;;;;;;;;;;;2206317;67;2002;-72
2023/06/27 04:27:53;;;;;;;;;;;;;;;;;;2206429;59;1241;-73
2023/06/27 04:30:24;;;;;;;;;;;;;;;;;;2207394;59;1624;-72
2023/06/27 04:32:54;;;;;;;;;;;;;;;;;;2206299;67;2064;-71
2023/06/27 04:35:24;;;;;;;;;;;;;;;;;;2206734;67;1450;-72
2023/06/27 04:37:56;;;;;;;;;;;;;;;;;;2206268;67;1237;-72
2023/06/27 04:40:27;;;;;;;;;;;;;;;;;;2207033;67;1530;-72
2023/06/27 04:42:57;;;;;;;;;;;;;;;;;;2207301;67;2011;-72
2023/06/27 04:45:27;;;;;;;;;;;;;;;;;;2206708;67;1956;-72
2023/06/27 04:47:57;;;;;;;;;;;;;;;;;;2206234;67;1802;-73
2023/06/27 04:50:29;;;;;;;;;;;;;;;;;;2206535;59;1812;-72
2023/06/27 04:52:59;;;;;;;;;;;;;;;;;;2206506;59;1937;-72
2023/06/27 04:55:31;;;;;;;;;;;;;;;;;;2206271;59;1421;-72
2023/06/27 04:58:01;;;;;;;;;;;;;;;;;;2206203;67;1393;-72
2023/06/27 05:00:32;;;;;;;;;;;;;;;;;;2211994;59;1660;-72
2023/06/27 05:03:02;;;;;;;;;;;;;;;;;;2203218;67;1423;-73
2023/06/27 05:05:34;;;;;;;;;;;;;;;;;;2210007;67;1860;-72
2023/06/27 05:08:05;;;;;;;;;;;;;;;;;;2208560;67;1630;-72
2023/06/27 05:10:36;;;;;;;;;;;;;;;;;;2211935;67;1596;-72
2023/06/27 05:13:06;;;;;;;;;;;;;;;;;;2217305;59;2088;-73
2023/06/27 05:15:36;;;;;;;;;;;;;;;;;;2217206;59;1333;-72
2023/06/27 05:18:07;;;;;;;;;;;;;;;;;;2210257;67;1583;-72
2023/06/27 05:20:37;;;;;;;;;;;;;;;;;;2208688;59;1867;-72
2023/06/27 05:23:07;;;;;;;;;;;;;;;;;;2206994;67;1929;-72
2023/06/27 05:25:37;;;;;;;;;;;;;;;;;;2206916;67;1644;-72
2023/06/27 05:28:08;;;;;;;;;;;;;;;;;;2206293;67;1452;-72
2023/06/27 05:30:39;;;;;;;;;;;;;;;;;;2206987;59;1744;-73
2023/06/27 05:33:09;;;;;;;;;;;;;;;;;;2202485;67;1743;-72
2023/06/27 05:35:39;;;;;;;;;;;;;;;;;;2207500;67;1377;-72
2023/06/27 05:38:09;;;;;;;;;;;;;;;;;;2206296;67;1595;-72
2023/06/27 05:40:40;;;;;;;;;;;;;;;;;;2203785;67;1712;-72
2023/06/27 05:43:10;;;;;;;;;;;;;;;;;;2206847;67;2204;-73
2023/06/27 05:45:40;;;;;;;;;;;;;;;;;;2207050;59;2668;-72
2023/06/27 05:48:11;;;;;;;;;;;;;;;;;;2205742;67;1426;-72
2023/06/27 05:50:41;;;;;;;;;;;;;;;;;;2206736;59;1650;-72
2023/06/27 05:53:11;;;;;;;;;;;;;;;;;;2206675;59;1894;-72
2023/06/27 05:55:41;;;;;;;;;;;;;;;;;;2207526;59;1390;-72
2023/06/27 05:58:12;;;;;;;;;;;;;;;;;;2206513;59;1792;-71
2023/06/27 06:00:42;;;;;;;;;;;;;;;;;;2207134;59;1825;-72
2023/06/27 06:03:12;;;;;;;;;;;;;;;;;;2202316;59;1971;-72
2023/06/27 06:05:43;;;;;;;;;;;;;;;;;;2206985;67;1516;-72
2023/06/27 06:08:13;;;;;;;;;;;;;;;;;;2205735;67;1476;-72
2023/06/27 06:10:45;;;;;;;;;;;;;;;;;;2206474;59;1334;-72
2023/06/27 06:13:15;;;;;;;;;;;;;;;;;;2202612;67;1544;-70
2023/06/27 06:15:45;;;;;;;;;;;;;;;;;;2206605;60;1346;-72
2023/06/27 06:18:15;;;;;;;;;;;;;;;;;;2205854;67;1712;-71
2023/06/27 06:20:46;;;;;;;;;;;;;;;;;;2207176;59;1813;-72
2023/06/27 06:23:16;;;;;;;;;;;;;;;;;;2202738;67;2081;-71
2023/06/27 06:25:46;;;;;;;;;;;;;;;;;;2206717;59;2205;-71
2023/06/27 06:28:16;;;;;;;;;;;;;;;;;;2205094;67;2159;-71
2023/06/27 06:30:50;;;;;;;;;;;;;;;;;;2206206;59;1531;-71
2023/06/27 06:33:21;;;;;;;;;;;;;;;;;;2205398;59;1932;-71
2023/06/27 06:35:52;;;;;;;;;;;;;;;;;;2205840;67;1348;-71
2023/06/27 06:38:22;;;;;;;;;;;;;;;;;;2205889;59;2208;-71
2023/06/27 06:40:52;;;;;;;;;;;;;;;;;;2205948;59;2529;-71
2023/06/27 06:43:24;;;;;;;;;;;;;;;;;;2204777;59;2005;-71
2023/06/27 06:45:55;;;;;;;;;;;;;;;;;;2205879;59;2090;-71
2023/06/27 06:48:29;;;;;;;;;;;;;;;;;;2206794;59;1486;-71
2023/06/27 06:50:59;;;;;;;;;;;;;;;;;;2205959;59;1659;-72
2023/06/27 06:53:29;;;;;;;;;;;;;;;;;;2206405;59;1719;-71
2023/06/27 06:56:00;;;;;;;;;;;;;;;;;;2205678;67;1958;-71
2023/06/27 06:58:30;;;;;;;;;;;;;;;;;;2206527;59;2039;-71
2023/06/27 07:01:00;;;;;;;;;;;;;;;;;;2205770;59;2698;-69
2023/06/27 07:03:33;;;;;;;;;;;;;;;;;;2205402;59;2037;-72
2023/06/27 07:06:03;;;;;;;;;;;;;;;;;;2205647;59;2439;-71
2023/06/27 07:08:34;;;;;;;;;;;;;;;;;;2205764;59;2105;-71
2023/06/27 07:11:04;;;;;;;;;;;;;;;;;;2206091;67;1340;-72
2023/06/27 07:13:34;;;;;;;;;;;;;;;;;;2205735;67;1665;-71
2023/06/27 07:16:07;;;;;;;;;;;;;;;;;;2205873;67;1615;-70
2023/06/27 07:18:38;;;;;;;;;;;;;;;;;;2206450;59;1747;-69
2023/06/27 07:21:08;;;;;;;;;;;;;;;;;;2203608;59;1275;-71
2023/06/27 07:23:38;;;;;;;;;;;;;;;;;;2205474;59;3018;-71
2023/06/27 07:26:08;;;;;;;;;;;;;;;;;;2205514;59;2214;-71
2023/06/27 07:28:39;;;;;;;;;;;;;;;;;;2202255;59;1596;-71
2023/06/27 07:31:09;;;;;;;;;;;;;;;;;;2205595;59;2026;-71
2023/06/27 07:33:39;;;;;;;;;;;;;;;;;;2206900;67;2092;-71
2023/06/27 07:36:09;;;;;;;;;;;;;;;;;;2201373;67;1541;-71
2023/06/27 07:38:40;;;;;;;;;;;;;;;;;;2206061;67;1994;-73
2023/06/27 07:41:10;;;;;;;;;;;;;;;;;;2202290;59;1966;-71
2023/06/27 07:43:40;;;;;;;;;;;;;;;;;;2206729;67;1936;-71
2023/06/27 07:46:11;;;;;;;;;;;;;;;;;;2206675;67;2132;-71
2023/06/27 07:48:41;;;;;;;;;;;;;;;;;;2209193;67;2373;-71
2023/06/27 07:51:11;;;;;;;;;;;;;;;;;;2208136;59;1592;-72
2023/06/27 07:53:42;;;;;;;;;;;;;;;;;;2208562;59;1900;-71
2023/06/27 07:56:12;;;;;;;;;;;;;;;;;;2208055;67;1731;-71
2023/06/27 07:58:44;;;;;;;;;;;;;;;;;;2205003;59;2374;-72
2023/06/27 08:01:14;;;;;;;;;;;;;;;;;;2206417;59;2027;-71
2023/06/27 08:03:45;;;;;;;;;;;;;;;;;;2206536;67;1979;-71
2023/06/27 08:06:15;;;;;;;;;;;;;;;;;;2200739;67;1327;-71
2023/06/27 08:08:45;;;;;;;;;;;;;;;;;;2206548;67;1659;-72
2023/06/27 08:11:15;;;;;;;;;;;;;;;;;;2205133;67;1670;-71
2023/06/27 08:13:45;;;;;;;;;;;;;;;;;;2205976;59;2090;-72
2023/06/27 08:16:16;;;;;;;;;;;;;;;;;;2206382;60;1645;-71
2023/06/27 08:18:46;;;;;;;;;;;;;;;;;;2203698;59;2190;-72
2023/06/27 08:21:17;;;;;;;;;;;;;;;;;;2206195;67;2506;-72
2023/06/27 08:23:47;;;;;;;;;;;;;;;;;;2207096;67;1916;-72
2023/06/27 08:26:18;;;;;;;;;;;;;;;;;;2204520;59;2892;-71
2023/06/27 08:28:48;;;;;;;;;;;;;;;;;;2201905;59;2718;-72
2023/06/27 08:31:21;;;;;;;;;;;;;;;;;;2205008;59;1574;-71
2023/06/27 08:33:52;;;;;;;;;;;;;;;;;;2206775;67;1583;-71
2023/06/27 08:36:22;;;;;;;;;;;;;;;;;;2205667;67;2140;-71
2023/06/27 08:38:52;;;;;;;;;;;;;;;;;;2205802;67;1998;-71
2023/06/27 08:41:23;;;;;;;;;;;;;;;;;;2204586;67;1671;-71
2023/06/27 08:43:54;;;;;;;;;;;;;;;;;;2205561;67;1917;-71
2023/06/27 08:46:26;;;;;;;;;;;;;;;;;;2204859;59;1917;-72
2023/06/27 08:48:59;;;;;;;;;;;;;;;;;;2205610;67;1564;-71
2023/06/27 08:51:30;;;;;;;;;;;;;;;;;;2205836;59;1585;-71
2023/06/27 08:54:08;;;;;;;;;;;;;;;;;;2207977;59;1441;-71
2023/06/27 08:56:40;;;;;;;;;;;;;;;;;;2205750;59;1974;-71
2023/06/27 08:59:12;;;;;;;;;;;;;;;;;;2205291;59;1637;-71
2023/06/27 09:01:43;;;;;;;;;;;;;;;;;;2203223;59;2060;-71
2023/06/27 09:04:13;;;;;;;;;;;;;;;;;;2201830;67;1936;-71
2023/06/27 09:06:44;;;;;;;;;;;;;;;;;;2206087;59;1493;-71
2023/06/27 09:09:15;;;;;;;;;;;;;;;;;;2205196;67;2076;-71
2023/06/27 09:11:46;;;;;;;;;;;;;;;;;;2207012;67;1289;-71
2023/06/27 09:14:16;;;;;;;;;;;;;;;;;;2206016;59;2142;-71
2023/06/27 09:16:46;;;;;;;;;;;;;;;;;;2206112;67;1367;-71
2023/06/27 09:19:17;;;;;;;;;;;;;;;;;;2205998;59;1816;-71
2023/06/27 09:21:50;;;;;;;;;;;;;;;;;;2206522;67;1534;-71
2023/06/27 09:24:21;;;;;;;;;;;;;;;;;;2205423;59;1985;-71
2023/06/27 09:26:52;;;;;;;;;;;;;;;;;;2206162;59;2326;-71
2023/06/27 09:29:29;;;;;;;;;;;;;;;;;;2205243;59;2385;-72
2023/06/27 09:32:09;;;;;;;;;;;;;;;;;;2205537;59;1649;-71
2023/06/27 09:34:39;;;;;;;;;;;;;;;;;;2205793;67;1545;-71
2023/06/27 09:37:09;;;;;;;;;;;;;;;;;;2201213;67;1892;-71
2023/06/27 09:39:39;;;;;;;;;;;;;;;;;;2206205;67;1457;-72
2023/06/27 09:42:10;;;;;;;;;;;;;;;;;;2205158;67;1462;-71
2023/06/27 09:44:40;;;;;;;;;;;;;;;;;;2206174;67;1928;-72
2023/06/27 09:47:10;;;;;;;;;;;;;;;;;;2205417;59;1792;-72
2023/06/27 09:49:43;;;;;;;;;;;;;;;;;;2206293;59;1347;-72
2023/06/27 09:52:14;;;;;;;;;;;;;;;;;;2205581;67;1668;-72
2023/06/27 09:54:46;;;;;;;;;;;;;;;;;;2206459;59;1736;-71
2023/06/27 09:57:21;;;;;;;;;;;;;;;;;;2202715;67;1675;-71
2023/06/27 09:59:57;;;;;;;;;;;;;;;;;;2205678;59;2012;-71
2023/06/27 10:02:29;;;;;;;;;;;;;;;;;;2206056;67;1407;-72
2023/06/27 10:05:00;;;;;;;;;;;;;;;;;;2202633;59;1977;-72
2023/06/27 10:07:30;;;;;;;;;;;;;;;;;;2205632;67;1561;-72
2023/06/27 10:10:01;;;;;;;;;;;;;;;;;;2205420;59;1257;-71
2023/06/27 10:12:32;;;;;;;;;;;;;;;;;;2205463;59;1402;-72
2023/06/27 10:15:03;;;;;;;;;;;;;;;;;;2201336;59;2267;-71
2023/06/27 10:17:33;;;;;;;;;;;;;;;;;;2205424;59;2129;-72
2023/06/27 10:20:08;;;;;;;;;;;;;;;;;;2205352;59;1612;-72
2023/06/27 10:22:40;;;;;;;;;;;;;;;;;;2205524;59;1685;-71
2023/06/27 10:25:11;;;;;;;;;;;;;;;;;;2204432;67;1979;-71
2023/06/27 10:27:42;;;;;;;;;;;;;;;;;;2205111;59;3009;-72
2023/06/27 10:30:18;;;;;;;;;;;;;;;;;;2204427;59;2298;-72
2023/06/27 10:32:49;;;;;;;;;;;;;;;;;;2205315;67;1691;-71
2023/06/27 10:35:26;;;;;;;;;;;;;;;;;;2204805;59;2021;-72
2023/06/27 10:38:08;;;;;;;;;;;;;;;;;;2205708;59;2402;-71
2023/06/27 10:41:00;;;;;;;;;;;;;;;;;;2205400;59;4743;-71
2023/06/27 10:43:37;;;;;;;;;;;;;;;;;;2205727;67;1921;-71
2023/06/27 10:46:08;;;;;;;;;;;;;;;;;;2205374;59;2023;-72
2023/06/27 10:48:46;;;;;;;;;;;;;;;;;;2206570;59;2342;-71
2023/06/27 10:51:17;;;;;;;;;;;;;;;;;;2205947;59;2182;-72
2023/06/27 10:54:06;;;;;;;;;;;;;;;;;;2206061;59;1687;-72
2023/06/27 10:56:40;;;;;;;;;;;;;;;;;;2205350;59;2060;-72
2023/06/27 10:59:11;;;;;;;;;;;;;;;;;;2201070;59;2143;-72
2023/06/27 11:01:43;;;;;;;;;;;;;;;;;;2205592;59;2271;-71
2023/06/27 11:04:21;;;;;;;;;;;;;;;;;;2201693;59;1984;-72
2023/06/27 11:06:59;;;;;;;;;;;;;;;;;;2205534;59;2414;-72
2023/06/27 11:09:30;;;;;;;;;;;;;;;;;;2205683;59;3032;-72
2023/06/27 11:12:11;;;;;;;;;;;;;;;;;;2203955;59;2490;-70
2023/06/27 11:14:45;;;;;;;;;;;;;;;;;;2202542;59;2516;-72
2023/06/27 11:17:17;;;;;;;;;;;;;;;;;;2201336;59;2551;-72
2023/06/27 11:19:48;;;;;;;;;;;;;;;;;;2206040;67;1846;-72
2023/06/27 11:22:18;;;;;;;;;;;;;;;;;;2204513;59;2111;-71
2023/06/27 11:24:49;;;;;;;;;;;;;;;;;;2205400;59;2054;-71
2023/06/27 11:27:19;;;;;;;;;;;;;;;;;;2204814;59;2619;-72
2023/06/27 11:29:49;;;;;;;;;;;;;;;;;;2204934;59;2977;-72
2023/06/27 11:32:19;;;;;;;;;;;;;;;;;;2205548;59;2314;-71
2023/06/27 11:34:49;;;;;;;;;;;;;;;;;;2204690;59;1612;-71
2023/06/27 11:37:20;;;;;;;;;;;;;;;;;;2199670;59;1760;-71
2023/06/27 11:39:52;;;;;;;;;;;;;;;;;;2206619;67;2070;-71
2023/06/27 11:42:35;;;;;;;;;;;;;;;;;;2204857;59;2033;-71
2023/06/27 11:45:10;;;;;;;;;;;;;;;;;;2203564;59;2138;-71
2023/06/27 11:47:40;;;;;;;;;;;;;;;;;;2204873;59;2145;-71
2023/06/27 11:50:11;;;;;;;;;;;;;;;;;;2204668;59;2106;-72
2023/06/27 11:52:41;;;;;;;;;;;;;;;;;;2205898;59;1412;-71
2023/06/27 11:55:12;;;;;;;;;;;;;;;;;;2204801;59;1951;-71
2023/06/27 11:57:42;;;;;;;;;;;;;;;;;;2205843;67;1848;-71
2023/06/27 12:00:16;;;;;;;;;;;;;;;;;;2204495;59;1791;-71
2023/06/27 12:02:47;;;;;;;;;;;;;;;;;;2205719;59;1661;-72
2023/06/27 12:05:18;;;;;;;;;;;;;;;;;;2201314;67;2298;-71
2023/06/27 12:07:55;;;;;;;;;;;;;;;;;;2205167;59;2392;-71
2023/06/27 12:10:26;;;;;;;;;;;;;;;;;;2204638;59;2182;-71
2023/06/27 12:12:56;;;;;;;;;;;;;;;;;;2204918;59;2283;-71
2023/06/27 12:15:26;;;;;;;;;;;;;;;;;;2202945;59;3398;-71
2023/06/27 12:18:00;;;;;;;;;;;;;;;;;;2202871;59;2614;-71
2023/06/27 12:20:41;;;;;;;;;;;;;;;;;;2205473;59;2292;-72
2023/06/27 12:23:11;;;;;;;;;;;;;;;;;;2204915;67;1742;-71
2023/06/27 12:25:41;;;;;;;;;;;;;;;;;;2202424;67;2001;-71
2023/06/27 12:28:12;;;;;;;;;;;;;;;;;;2204329;67;1847;-72
2023/06/27 12:30:43;;;;;;;;;;;;;;;;;;2200354;59;3423;-72
2023/06/27 12:33:13;;;;;;;;;;;;;;;;;;2200879;59;1774;-71
2023/06/27 12:35:43;;;;;;;;;;;;;;;;;;2205572;59;2114;-71
2023/06/27 12:38:13;;;;;;;;;;;;;;;;;;2204550;59;2383;-72
2023/06/27 12:40:43;;;;;;;;;;;;;;;;;;2202322;60;1601;-72
2023/06/27 12:43:14;;;;;;;;;;;;;;;;;;2205208;59;1663;-72
2023/06/27 12:45:57;;;;;;;;;;;;;;;;;;2201555;59;2052;-72
2023/06/27 12:48:27;;;;;;;;;;;;;;;;;;2204734;59;2338;-71
2023/06/27 12:50:57;;;;;;;;;;;;;;;;;;2204737;59;1852;-72
2023/06/27 12:53:28;;;;;;;;;;;;;;;;;;2205013;59;1984;-71
2023/06/27 12:56:04;;;;;;;;;;;;;;;;;;2204908;67;1667;-72
2023/06/27 12:58:35;;;;;;;;;;;;;;;;;;2205477;67;2287;-72
2023/06/27 13:01:05;;;;;;;;;;;;;;;;;;2205453;67;2224;-70
2023/06/27 13:03:35;;;;;;;;;;;;;;;;;;2201912;59;2147;-71
2023/06/27 13:06:06;;;;;;;;;;;;;;;;;;2205649;59;2278;-72
2023/06/27 13:08:36;;;;;;;;;;;;;;;;;;2205624;67;1515;-71
2023/06/27 13:11:06;;;;;;;;;;;;;;;;;;2204627;67;1924;-71
2023/06/27 13:13:36;;;;;;;;;;;;;;;;;;2205849;67;1702;-72
2023/06/27 13:16:08;;;;;;;;;;;;;;;;;;2203618;59;2167;-71
2023/06/27 13:18:39;;;;;;;;;;;;;;;;;;2204007;59;2038;-72
2023/06/27 13:21:10;;;;;;;;;;;;;;;;;;2204200;59;2346;-70
2023/06/27 13:23:40;;;;;;;;;;;;;;;;;;2205392;67;2012;-71
2023/06/27 13:26:10;;;;;;;;;;;;;;;;;;2204061;67;2242;-71
2023/06/27 13:28:40;;;;;;;;;;;;;;;;;;2204807;67;1757;-71
2023/06/27 13:31:11;;;;;;;;;;;;;;;;;;2204686;59;1873;-71
2023/06/27 13:33:41;;;;;;;;;;;;;;;;;;2206163;67;1142;-71
2023/06/27 13:36:11;;;;;;;;;;;;;;;;;;2205354;59;1510;-71
2023/06/27 13:38:41;;;;;;;;;;;;;;;;;;2206281;67;1415;-69
2023/06/27 13:41:11;;;;;;;;;;;;;;;;;;2205269;67;1747;-71
2023/06/27 13:43:42;;;;;;;;;;;;;;;;;;2206440;59;1916;-71
2023/06/27 13:46:12;;;;;;;;;;;;;;;;;;2205431;67;1553;-71
2023/06/27 13:48:42;;;;;;;;;;;;;;;;;;2205521;59;1664;-71
2023/06/27 13:51:12;;;;;;;;;;;;;;;;;;2204913;59;1765;-71
2023/06/27 13:53:42;;;;;;;;;;;;;;;;;;2206199;59;1391;-71
2023/06/27 13:56:13;;;;;;;;;;;;;;;;;;2205844;67;1376;-71
2023/06/27 13:58:43;;;;;;;;;;;;;;;;;;2205978;59;2266;-70
2023/06/27 14:01:13;;;;;;;;;;;;;;;;;;2205089;59;1839;-71
2023/06/27 14:03:43;;;;;;;;;;;;;;;;;;2206788;67;2000;-71
2023/06/27 14:06:14;;;;;;;;;;;;;;;;;;2205203;67;1330;-71
2023/06/27 14:08:45;;;;;;;;;;;;;;;;;;2206311;67;1390;-71
2023/06/27 14:11:15;;;;;;;;;;;;;;;;;;2206941;67;1477;-71
2023/06/27 14:13:46;;;;;;;;;;;;;;;;;;2210996;67;1390;-71
2023/06/27 14:16:17;;;;;;;;;;;;;;;;;;2205195;59;1730;-71
2023/06/27 14:18:47;;;;;;;;;;;;;;;;;;2206575;67;1941;-71
2023/06/27 14:21:18;;;;;;;;;;;;;;;;;;2205904;59;1587;-71
2023/06/27 14:23:55;;;;;;;;;;;;;;;;;;2214088;67;1929;-71
2023/06/27 14:26:25;;;;;;;;;;;;;;;;;;2214876;59;1899;-69
2023/06/27 14:28:56;;;;;;;;;;;;;;;;;;2215379;67;1422;-71
2023/06/27 14:31:26;;;;;;;;;;;;;;;;;;2215318;59;1309;-71
2023/06/27 14:33:56;;;;;;;;;;;;;;;;;;2217224;67;1485;-71
2023/06/27 14:36:27;;;;;;;;;;;;;;;;;;2216771;67;1163;-71
2023/06/27 14:38:57;;;;;;;;;;;;;;;;;;2212573;67;1391;-71
2023/06/27 14:41:28;;;;;;;;;;;;;;;;;;2207006;59;1531;-71
2023/06/27 14:43:58;;;;;;;;;;;;;;;;;;2206817;67;1931;-71
2023/06/27 14:46:28;;;;;;;;;;;;;;;;;;2206293;59;1442;-71
2023/06/27 14:48:58;;;;;;;;;;;;;;;;;;2206073;67;1415;-71
2023/06/27 14:51:28;;;;;;;;;;;;;;;;;;2201901;59;1343;-71
2023/06/27 14:53:59;;;;;;;;;;;;;;;;;;2202554;59;1574;-71
2023/06/27 14:56:29;;;;;;;;;;;;;;;;;;2205972;67;1314;-71
2023/06/27 14:59:00;;;;;;;;;;;;;;;;;;2205850;67;1831;-72
2023/06/27 15:01:30;;;;;;;;;;;;;;;;;;2205782;59;1710;-71
2023/06/27 15:04:00;;;;;;;;;;;;;;;;;;2205808;67;1946;-72
2023/06/27 15:06:31;;;;;;;;;;;;;;;;;;2206065;67;1531;-71
2023/06/27 15:09:01;;;;;;;;;;;;;;;;;;2206025;67;1426;-71
2023/06/27 15:11:31;;;;;;;;;;;;;;;;;;2205865;59;1353;-71
2023/06/27 15:14:02;;;;;;;;;;;;;;;;;;2208112;67;1424;-71
2023/06/27 15:16:32;;;;;;;;;;;;;;;;;;2205284;67;1426;-72
2023/06/27 15:19:03;;;;;;;;;;;;;;;;;;2205507;67;1362;-72
2023/06/27 15:21:33;;;;;;;;;;;;;;;;;;2206121;59;1561;-70
2023/06/27 15:24:03;;;;;;;;;;;;;;;;;;2205542;59;2082;-71
2023/06/27 15:26:33;;;;;;;;;;;;;;;;;;2205656;59;2006;-71
2023/06/27 15:29:03;;;;;;;;;;;;;;;;;;2205701;67;2252;-71
2023/06/27 15:31:34;;;;;;;;;;;;;;;;;;2205414;59;1259;-71
2023/06/27 15:34:04;;;;;;;;;;;;;;;;;;2205674;67;1332;-71
2023/06/27 15:36:36;;;;;;;;;;;;;;;;;;2205405;59;2065;-72
2023/06/27 15:39:06;;;;;;;;;;;;;;;;;;2205378;67;1696;-71
2023/06/27 15:41:36;;;;;;;;;;;;;;;;;;2204682;59;2165;-71
2023/06/27 15:44:07;;;;;;;;;;;;;;;;;;2205738;59;1924;-72
2023/06/27 15:46:37;;;;;;;;;;;;;;;;;;2205652;67;1682;-71
2023/06/27 15:49:07;;;;;;;;;;;;;;;;;;2206486;67;1481;-71
2023/06/27 15:51:37;;;;;;;;;;;;;;;;;;2205535;59;2421;-71
2023/06/27 15:54:09;;;;;;;;;;;;;;;;;;2205670;59;1453;-71
2023/06/27 15:56:40;;;;;;;;;;;;;;;;;;2205853;67;1427;-71
2023/06/27 15:59:10;;;;;;;;;;;;;;;;;;2205802;59;1783;-71
2023/06/27 16:01:41;;;;;;;;;;;;;;;;;;2205427;59;2224;-71
2023/06/27 16:04:13;;;;;;;;;;;;;;;;;;2205342;59;1916;-71
2023/06/27 16:06:43;;;;;;;;;;;;;;;;;;2201776;59;2266;-71
2023/06/27 16:09:13;;;;;;;;;;;;;;;;;;2205601;59;2210;-71
2023/06/27 16:11:44;;;;;;;;;;;;;;;;;;2198733;67;1483;-71
2023/06/27 16:14:14;;;;;;;;;;;;;;;;;;2205045;67;1478;-71
2023/06/27 16:16:44;;;;;;;;;;;;;;;;;;2205982;67;1726;-71
2023/06/27 16:19:14;;;;;;;;;;;;;;;;;;2205246;59;2392;-71
2023/06/27 16:21:45;;;;;;;;;;;;;;;;;;2205714;59;1682;-71
2023/06/27 16:24:15;;;;;;;;;;;;;;;;;;2202045;67;1912;-71
2023/06/27 16:26:45;;;;;;;;;;;;;;;;;;2204899;67;1391;-71
2023/06/27 16:29:15;;;;;;;;;;;;;;;;;;2205783;67;1506;-71
2023/06/27 16:31:46;;;;;;;;;;;;;;;;;;2205822;59;1341;-71
2023/06/27 16:34:16;;;;;;;;;;;;;;;;;;2205754;67;1692;-71
2023/06/27 16:36:46;;;;;;;;;;;;;;;;;;2205732;67;1650;-72
2023/06/27 16:39:17;;;;;;;;;;;;;;;;;;2205199;59;2071;-71
2023/06/27 16:41:47;;;;;;;;;;;;;;;;;;2206178;67;2016;-71
2023/06/27 16:44:17;;;;;;;;;;;;;;;;;;2205489;59;2017;-71
2023/06/27 16:46:48;;;;;;;;;;;;;;;;;;2206135;59;2216;-71
2023/06/27 16:49:19;;;;;;;;;;;;;;;;;;2205751;59;2094;-71
2023/06/27 16:51:49;;;;;;;;;;;;;;;;;;2206117;59;1368;-71
2023/06/27 16:54:20;;;;;;;;;;;;;;;;;;2206142;59;1497;-71
2023/06/27 16:56:50;;;;;;;;;;;;;;;;;;2207040;67;1499;-71
2023/06/27 16:59:20;;;;;;;;;;;;;;;;;;2204052;59;2115;-70
2023/06/27 17:01:54;;;;;;;;;;;;;;;;;;2207663;67;1649;-70
2023/06/27 17:04:24;;;;;;;;;;;;;;;;;;2206147;67;2763;-71
2023/06/27 17:06:54;;;;;;;;;;;;;;;;;;2207089;67;1437;-71
2023/06/27 17:09:24;;;;;;;;;;;;;;;;;;2205819;59;1618;-71
2023/06/27 17:11:55;;;;;;;;;;;;;;;;;;2206277;67;1325;-71
2023/06/27 17:14:26;;;;;;;;;;;;;;;;;;2206486;67;1362;-71
2023/06/27 17:16:56;;;;;;;;;;;;;;;;;;2206059;59;2528;-71
2023/06/27 17:19:26;;;;;;;;;;;;;;;;;;2207168;67;1415;-71
2023/06/27 17:21:56;;;;;;;;;;;;;;;;;;2208413;59;1683;-71
2023/06/27 17:24:27;;;;;;;;;;;;;;;;;;2204586;67;1973;-71
2023/06/27 17:26:57;;;;;;;;;;;;;;;;;;2207747;59;1944;-71
2023/06/27 17:29:27;;;;;;;;;;;;;;;;;;2207304;67;1713;-71